createdAt,value
2019-04-21T00:03:00.736Z,84.60
2019-04-21T00:05:58.770Z,85.30
2019-04-21T00:11:17.941Z,85.30
2019-04-21T00:13:56.072Z,85.10
2019-04-21T00:16:33.082Z,85.50
2019-04-21T00:23:22.645Z,85.40
2019-04-21T00:26:03.032Z,85.40
2019-04-21T00:28:53.744Z,85.20
2019-04-21T00:31:23.083Z,85.90
2019-04-21T00:33:45.561Z,85.70
2019-04-21T00:36:29.802Z,85.90
2019-04-21T00:39:28.779Z,86.20
2019-04-21T00:41:56.178Z,86.10
2019-04-21T00:44:16.505Z,86.80
2019-04-21T00:47:27.860Z,86.80
2019-04-21T00:49:57.918Z,87.60
2019-04-21T01:08:09.438Z,88.10
2019-04-21T01:21:39.505Z,89.30
2019-04-21T01:29:01.629Z,89.50
2019-04-21T01:32:49.426Z,89.60
2019-04-21T02:13:24.594Z,91.30
2019-04-21T02:16:18.547Z,90.80
2019-04-21T02:18:56.838Z,91.30
2019-04-21T02:21:46.203Z,91.50
2019-04-21T02:24:42.728Z,91.70
2019-04-21T02:57:59.375Z,93.90
2019-04-21T03:09:12.871Z,94.90
2019-04-21T03:29:59.290Z,96.70
2019-04-21T04:11:35.991Z,99.90
2019-04-21T04:13:56.006Z,99.90
2019-04-21T04:17:14.400Z,99.90
2019-04-21T05:17:17.200Z,99.90
2019-04-21T05:23:03.040Z,99.90
2019-04-21T05:29:20.525Z,99.90
2019-04-21T05:35:45.193Z,99.90
2019-04-21T05:38:57.022Z,99.90
2019-04-21T05:41:45.540Z,99.90
2019-04-21T05:44:27.962Z,99.90
2019-04-21T05:47:48.641Z,99.90
2019-04-21T05:50:16.702Z,99.90
2019-04-21T05:52:45.947Z,99.90
2019-04-21T05:56:30.591Z,99.90
2019-04-21T05:58:59.396Z,99.90
2019-04-21T06:02:18.545Z,99.90
2019-04-21T06:05:26.297Z,99.90
2019-04-21T06:08:08.177Z,99.90
2019-04-21T06:11:10.244Z,99.90
2019-04-21T06:26:54.925Z,99.90
2019-04-21T06:46:45.937Z,99.90
2019-04-21T06:49:45.660Z,99.90
2019-04-21T06:59:30.004Z,99.90
2019-04-21T07:02:31.875Z,99.90
2019-04-21T07:20:21.792Z,99.90
2019-04-21T07:23:30.299Z,99.90
2019-04-21T07:33:33.673Z,99.70
2019-04-21T07:39:49.356Z,98.70
2019-04-21T07:43:01.408Z,98.50
2019-04-21T07:46:17.248Z,98.20
2019-04-21T07:49:11.125Z,97.60
2019-04-21T07:52:06.015Z,97.20
2019-04-21T07:54:37.369Z,97.00
2019-04-21T07:57:05.351Z,98.10
2019-04-21T08:00:15.041Z,98.00
2019-04-21T08:02:28.317Z,97.90
2019-04-21T08:05:07.565Z,98.80
2019-04-21T08:07:49.247Z,98.40
2019-04-21T08:10:13.904Z,98.70
2019-04-21T08:12:48.167Z,98.90
2019-04-21T08:15:42.674Z,99.00
2019-04-21T08:18:00.699Z,98.50
2019-04-21T08:20:38.719Z,98.90
2019-04-21T08:23:13.101Z,97.90
2019-04-21T08:25:46.538Z,97.70
2019-04-21T08:28:09.140Z,97.70
2019-04-21T08:30:56.794Z,97.30
2019-04-21T08:33:36.653Z,97.50
2019-04-21T08:36:12.552Z,97.40
2019-04-21T08:38:37.766Z,97.10
2019-04-21T08:41:14.938Z,96.50
2019-04-21T08:44:06.157Z,96.70
2019-04-21T08:46:55.107Z,96.20
2019-04-21T08:49:26.564Z,96.10
2019-04-21T08:52:16.713Z,96.60
2019-04-21T08:54:43.548Z,95.80
2019-04-21T08:57:39.631Z,95.60
2019-04-21T09:00:37.021Z,94.80
2019-04-21T09:03:14.662Z,95.00
2019-04-21T09:05:45.507Z,94.00
2019-04-21T09:08:20.142Z,94.20
2019-04-21T09:10:55.971Z,93.30
2019-04-21T09:13:24.747Z,93.40
2019-04-21T09:15:54.849Z,92.40
2019-04-21T09:18:22.854Z,91.40
2019-04-21T09:21:07.253Z,90.80
2019-04-21T09:23:36.104Z,91.10
2019-04-21T09:26:05.557Z,90.90
2019-04-21T09:28:34.391Z,90.20
2019-04-21T09:30:56.886Z,90.40
2019-04-21T09:33:40.453Z,90.30
2019-04-21T09:36:09.711Z,90.30
2019-04-21T09:38:54.916Z,90.00
2019-04-21T09:41:20.876Z,89.90
2019-04-21T09:43:53.679Z,88.60
2019-04-21T09:46:20.876Z,90.10
2019-04-21T09:48:59.050Z,89.40
2019-04-21T09:51:24.141Z,90.00
2019-04-21T09:54:02.042Z,87.90
2019-04-21T09:56:34.614Z,88.50
2019-04-21T09:59:09.143Z,87.20
2019-04-21T10:01:45.066Z,87.90
2019-04-21T10:04:04.332Z,87.40
2019-04-21T10:06:33.032Z,86.20
2019-04-21T10:09:07.887Z,86.00
2019-04-21T10:11:37.622Z,87.50
2019-04-21T10:14:11.637Z,85.80
2019-04-21T10:16:46.647Z,85.60
2019-04-21T10:19:17.504Z,86.50
2019-04-21T10:21:47.801Z,84.70
2019-04-21T10:24:18.026Z,85.20
2019-04-21T10:26:47.359Z,84.40
2019-04-21T10:29:25.437Z,82.70
2019-04-21T10:31:48.836Z,83.90
2019-04-21T10:34:19.225Z,83.10
2019-04-21T10:36:49.545Z,82.40
2019-04-21T10:39:20.008Z,79.80
2019-04-21T10:41:49.339Z,79.80
2019-04-21T10:44:21.005Z,78.60
2019-04-21T10:46:53.650Z,80.00
2019-04-21T10:49:24.494Z,80.40
2019-04-21T10:51:57.251Z,80.30
2019-04-21T10:54:57.284Z,80.30
2019-04-21T10:57:04.781Z,79.50
2019-04-21T10:59:37.235Z,80.30
2019-04-21T11:02:12.698Z,77.90
2019-04-21T11:04:44.025Z,76.00
2019-04-21T11:07:52.247Z,77.60
2019-04-21T11:10:08.000Z,76.00
2019-04-21T11:12:39.370Z,75.90
2019-04-21T11:15:15.098Z,75.70
2019-04-21T11:17:45.532Z,76.20
2019-04-21T11:20:19.100Z,76.00
2019-04-21T11:22:49.381Z,74.50
2019-04-21T11:25:20.113Z,72.70
2019-04-21T11:27:51.093Z,72.50
2019-04-21T11:30:20.878Z,73.30
2019-04-21T11:32:55.253Z,73.50
2019-04-21T11:35:43.451Z,73.90
2019-04-21T11:38:23.616Z,73.70
2019-04-21T11:40:57.990Z,71.90
2019-04-21T11:43:27.854Z,71.30
2019-04-21T11:46:00.205Z,72.50
2019-04-21T11:48:30.442Z,72.20
2019-04-21T11:51:01.192Z,72.40
2019-04-21T11:53:30.826Z,73.60
2019-04-21T11:56:01.134Z,72.70
2019-04-21T11:58:32.035Z,73.00
2019-04-21T12:01:05.700Z,70.40
2019-04-21T12:03:39.940Z,70.90
2019-04-21T12:06:13.253Z,71.00
2019-04-21T12:08:47.426Z,70.40
2019-04-21T12:11:17.761Z,69.70
2019-04-21T12:13:56.251Z,68.60
2019-04-21T12:16:28.796Z,68.70
2019-04-21T12:19:05.439Z,67.70
2019-04-21T12:21:46.605Z,69.20
2019-04-21T12:24:11.039Z,68.20
2019-04-21T12:26:44.480Z,68.40
2019-04-21T12:29:16.553Z,69.00
2019-04-21T12:32:07.949Z,70.50
2019-04-21T12:34:41.769Z,67.90
2019-04-21T12:37:11.262Z,69.30
2019-04-21T12:39:46.556Z,66.20
2019-04-21T12:42:18.571Z,68.40
2019-04-21T12:44:49.502Z,66.50
2019-04-21T12:47:21.769Z,67.90
2019-04-21T12:49:52.296Z,66.20
2019-04-21T12:52:29.510Z,66.30
2019-04-21T12:54:59.964Z,65.30
2019-04-21T12:57:32.820Z,64.80
2019-04-21T13:00:02.879Z,64.80
2019-04-21T13:02:43.580Z,64.50
2019-04-21T13:05:13.628Z,65.10
2019-04-21T13:07:43.710Z,65.70
2019-04-21T13:10:16.041Z,65.70
2019-04-21T13:12:46.023Z,64.60
2019-04-21T13:15:19.960Z,64.70
2019-04-21T13:17:50.455Z,62.70
2019-04-21T13:20:21.129Z,64.50
2019-04-21T13:22:54.046Z,63.10
2019-04-21T13:25:23.984Z,65.80
2019-04-21T13:28:00.937Z,63.70
2019-04-21T13:30:32.657Z,62.90
2019-04-21T13:33:03.164Z,62.70
2019-04-21T13:35:37.334Z,64.20
2019-04-21T13:38:18.658Z,63.90
2019-04-21T13:41:24.726Z,62.50
2019-04-21T13:43:39.210Z,63.30
2019-04-21T13:46:10.251Z,62.00
2019-04-21T13:48:44.535Z,61.40
2019-04-21T13:51:15.378Z,62.00
2019-04-21T13:53:47.230Z,62.90
2019-04-21T13:56:22.571Z,61.40
2019-04-21T13:58:55.674Z,61.10
2019-04-21T14:01:27.784Z,61.30
2019-04-21T14:03:57.820Z,60.30
2019-04-21T14:06:36.332Z,62.40
2019-04-21T14:09:10.770Z,62.50
2019-04-21T14:11:43.461Z,61.50
2019-04-21T14:14:14.315Z,61.90
2019-04-21T14:16:45.915Z,60.00
2019-04-21T14:19:15.420Z,60.80
2019-04-21T14:21:48.210Z,60.20
2019-04-21T14:24:17.199Z,60.90
2019-04-21T14:26:48.136Z,61.60
2019-04-21T14:29:17.612Z,61.90
2019-04-21T14:31:48.445Z,62.00
2019-04-21T14:34:23.958Z,59.20
2019-04-21T14:37:02.632Z,59.70
2019-04-21T14:39:32.535Z,60.80
2019-04-21T14:42:02.373Z,59.40
2019-04-21T14:44:38.831Z,59.70
2019-04-21T14:47:40.332Z,60.50
2019-04-21T14:50:46.412Z,60.90
2019-04-21T14:53:38.001Z,59.00
2019-04-21T14:56:15.327Z,59.40
2019-04-21T14:58:46.862Z,57.50
2019-04-21T15:01:21.971Z,59.10
2019-04-21T15:03:52.584Z,58.60
2019-04-21T15:06:23.438Z,58.50
2019-04-21T15:08:55.423Z,58.10
2019-04-21T15:11:26.002Z,58.10
2019-04-21T15:13:59.799Z,59.90
2019-04-21T15:16:38.751Z,59.60
2019-04-21T15:19:10.717Z,59.00
2019-04-21T15:21:48.136Z,57.80
2019-04-21T15:25:08.018Z,58.10
2019-04-21T15:27:17.110Z,58.30
2019-04-21T15:29:49.058Z,57.10
2019-04-21T15:32:21.953Z,57.10
2019-04-21T15:34:54.017Z,57.20
2019-04-21T15:37:28.235Z,55.30
2019-04-21T15:39:58.536Z,54.90
2019-04-21T15:42:30.582Z,55.30
2019-04-21T15:45:18.746Z,54.90
2019-04-21T15:47:49.824Z,54.50
2019-04-21T15:50:26.522Z,54.10
2019-04-21T15:53:07.780Z,54.00
2019-04-21T15:56:11.034Z,55.70
2019-04-21T15:58:58.926Z,55.40
2019-04-21T16:01:40.703Z,56.60
2019-04-21T16:04:12.898Z,57.50
2019-04-21T16:06:43.669Z,56.70
2019-04-21T16:09:16.770Z,56.70
2019-04-21T16:11:49.690Z,58.20
2019-04-21T16:14:20.600Z,59.00
2019-04-21T16:16:51.827Z,58.50
2019-04-21T16:19:29.383Z,59.80
2019-04-21T16:22:10.681Z,58.90
2019-04-21T16:24:46.057Z,59.40
2019-04-21T16:27:19.446Z,60.00
2019-04-21T16:29:57.651Z,61.20
2019-04-21T16:32:32.206Z,60.00
2019-04-21T16:35:14.043Z,60.20
2019-04-21T16:37:43.667Z,59.40
2019-04-21T16:40:17.094Z,59.50
2019-04-21T16:43:04.025Z,59.60
2019-04-21T16:45:41.015Z,59.60
2019-04-21T16:48:12.966Z,58.30
2019-04-21T16:50:47.806Z,58.60
2019-04-21T16:53:30.271Z,58.50
2019-04-21T16:56:25.295Z,59.20
2019-04-21T16:59:00.800Z,58.60
2019-04-21T17:01:31.785Z,59.70
2019-04-21T17:04:12.777Z,58.20
2019-04-21T17:06:59.101Z,58.40
2019-04-21T17:09:48.596Z,58.10
2019-04-21T17:12:22.799Z,58.40
2019-04-21T17:15:16.836Z,58.90
2019-04-21T17:18:06.387Z,58.20
2019-04-21T17:23:09.579Z,58.80
2019-04-21T17:25:43.351Z,58.40
2019-04-21T17:28:12.788Z,58.80
2019-04-21T17:30:48.503Z,58.30
2019-04-21T17:33:30.678Z,58.30
2019-04-21T17:36:02.941Z,59.20
2019-04-21T17:38:34.238Z,58.80
2019-04-21T17:41:37.686Z,59.20
2019-04-21T17:44:17.152Z,59.20
2019-04-21T17:47:17.803Z,59.70
2019-04-21T17:50:31.583Z,60.00
2019-04-21T17:53:10.719Z,60.70
2019-04-21T17:56:20.680Z,61.50
2019-04-21T17:59:44.780Z,61.50
2019-04-21T18:02:30.031Z,61.50
2019-04-21T18:05:15.240Z,62.80
2019-04-21T18:08:44.055Z,63.30
2019-04-21T18:11:51.175Z,63.70
2019-04-21T18:14:34.582Z,64.20
2019-04-21T18:17:38.764Z,64.60
2019-04-21T18:21:08.996Z,64.70
2019-04-21T18:24:17.506Z,64.20
2019-04-21T18:26:56.595Z,64.90
2019-04-21T18:29:25.611Z,64.90
2019-04-21T18:32:06.349Z,64.70
2019-04-21T18:38:38.540Z,65.90
2019-04-21T18:41:15.705Z,66.30
2019-04-21T18:48:02.730Z,66.90
2019-04-21T18:50:46.096Z,67.40
2019-04-21T18:53:35.202Z,67.80
2019-04-21T18:55:59.451Z,68.90
2019-04-21T18:58:26.490Z,68.20
2019-04-21T19:01:04.608Z,68.60
2019-04-21T19:03:35.393Z,68.40
2019-04-21T19:06:08.786Z,69.70
2019-04-21T19:08:57.780Z,70.60
2019-04-21T19:11:19.042Z,70.00
2019-04-21T19:14:19.711Z,70.70
2019-04-21T19:16:50.999Z,71.10
2019-04-21T19:19:34.072Z,70.50
2019-04-21T19:21:49.952Z,70.50
2019-04-21T19:24:24.235Z,70.70
2019-04-21T19:27:00.341Z,70.90
2019-04-21T19:29:29.915Z,70.30
2019-04-21T19:32:14.974Z,70.60
2019-04-21T19:34:18.465Z,70.60
2019-04-21T19:36:51.315Z,70.90
2019-04-21T19:39:33.066Z,70.80
2019-04-21T19:42:00.427Z,71.20
2019-04-21T19:44:38.253Z,72.10
2019-04-21T19:47:28.178Z,72.90
2019-04-21T19:50:35.478Z,72.50
2019-04-21T19:52:57.390Z,73.10
2019-04-21T19:55:22.270Z,73.40
2019-04-21T19:57:58.626Z,75.50
2019-04-21T20:00:40.401Z,74.40
2019-04-21T20:03:12.381Z,77.70
2019-04-21T20:05:51.961Z,77.00
2019-04-21T20:08:34.396Z,78.30
2019-04-21T20:11:11.382Z,79.70
2019-04-21T20:13:53.044Z,77.00
2019-04-21T20:16:14.904Z,79.50
2019-04-21T20:18:32.562Z,79.30
2019-04-21T20:20:58.364Z,77.70
2019-04-21T20:23:32.754Z,80.80
2019-04-21T20:26:06.206Z,79.30
2019-04-21T20:29:04.530Z,78.00
2019-04-21T20:31:39.743Z,78.00
2019-04-21T20:34:33.382Z,78.20
2019-04-21T20:37:19.606Z,79.60
2019-04-21T20:39:57.807Z,78.90
2019-04-21T20:42:36.656Z,79.40
2019-04-21T20:45:26.631Z,80.10
2019-04-21T20:47:35.002Z,80.10
2019-04-21T20:50:12.666Z,81.30
2019-04-21T20:52:58.563Z,80.30
2019-04-21T20:55:24.913Z,81.30
2019-04-21T20:57:59.631Z,81.70
2019-04-21T21:00:54.636Z,81.20
2019-04-21T21:03:23.410Z,81.50
2019-04-21T21:05:55.691Z,83.10
2019-04-21T21:08:35.769Z,82.70
2019-04-21T21:12:04.276Z,82.80
2019-04-21T21:14:13.111Z,90.20
2019-04-21T21:17:01.253Z,89.40
2019-04-21T21:19:32.950Z,89.20
2019-04-21T21:22:06.001Z,90.00
2019-04-21T21:25:14.549Z,90.30
2019-04-21T21:27:41.849Z,90.20
2019-04-21T21:30:16.092Z,90.60
2019-04-21T21:32:49.382Z,90.60
2019-04-21T21:35:25.935Z,90.30
2019-04-21T21:38:09.963Z,91.50
2019-04-21T21:40:46.541Z,92.10
2019-04-21T21:43:19.497Z,91.80
2019-04-21T21:45:55.583Z,92.00
2019-04-21T21:48:47.049Z,92.40
2019-04-21T21:51:11.124Z,93.60
2019-04-21T21:53:35.951Z,92.90
2019-04-21T21:56:06.914Z,94.20
2019-04-21T21:58:42.378Z,94.80
2019-04-21T22:01:21.739Z,95.20
2019-04-21T22:04:01.649Z,96.20
2019-04-21T22:06:40.636Z,96.80
2019-04-21T22:09:19.677Z,97.20
2019-04-21T22:11:56.556Z,97.40
2019-04-21T22:14:25.977Z,97.80
2019-04-21T22:17:14.664Z,98.10
2019-04-21T22:20:08.453Z,98.40
2019-04-21T22:22:31.267Z,99.00
2019-04-21T22:25:09.660Z,99.70
2019-04-21T22:27:36.947Z,99.90
2019-04-21T22:30:11.017Z,99.90
2019-04-21T22:32:51.274Z,99.90
2019-04-21T22:35:28.376Z,99.90
2019-04-21T22:38:11.809Z,99.90
2019-04-21T22:40:42.967Z,99.80
2019-04-21T22:43:17.047Z,99.80
2019-04-21T22:45:40.984Z,99.90
2019-04-21T22:48:20.990Z,99.90
2019-04-21T22:50:48.576Z,99.90
2019-04-21T22:53:21.354Z,99.40
2019-04-21T22:56:00.104Z,99.90
2019-04-21T22:58:51.751Z,99.90
2019-04-21T23:01:30.123Z,99.90
2019-04-21T23:04:02.929Z,99.90
2019-04-21T23:06:35.690Z,99.90
2019-04-21T23:09:14.894Z,99.90
2019-04-21T23:11:48.245Z,99.90
2019-04-21T23:14:17.545Z,99.90
2019-04-21T23:16:54.035Z,99.90
2019-04-21T23:19:36.148Z,99.90
2019-04-21T23:22:14.624Z,99.90
2019-04-21T23:25:03.727Z,99.90
2019-04-21T23:27:40.620Z,99.90
2019-04-21T23:30:21.346Z,99.90
2019-04-21T23:32:35.983Z,99.90
2019-04-21T23:35:07.224Z,99.90
2019-04-21T23:37:34.134Z,99.90
2019-04-21T23:40:10.685Z,99.90
2019-04-21T23:42:44.938Z,99.90
2019-04-21T23:45:17.688Z,99.90
2019-04-21T23:47:57.848Z,99.90
2019-04-21T23:50:27.735Z,99.90
2019-04-21T23:52:50.167Z,99.90
2019-04-21T23:55:23.240Z,99.90
2019-04-21T23:58:06.157Z,99.90
